NCAR-RAP Real-Time Weather Data

Output produced by METARs form (14 October 2019  23:33 UTC)
found at http://weather.rap.ucar.edu/surface/
 
KMSP 142253Z 14006KT 10SM FEW130 SCT220 BKN250 09/01 A2991 RMK AO2 SLP134 T00940006
KMSP 142153Z 19007KT 10SM FEW160 BKN250 10/00 A2993 RMK AO2 SLP140 T01000000
KMSP 142053Z 20008KT 10SM FEW160 BKN250 09/00 A2995 RMK AO2 SLP147 T00940000 56019
KMSP 141953Z 24010G14KT 10SM FEW035 SCT250 09/00 A2996 RMK AO2 SLP152 T00940000
KMSP 141853Z 23007KT 10SM SCT033 SCT250 08/00 A2999 RMK AO2 SLP161 T00830000
KMSP 141753Z 24005KT 10SM SCT031 SCT250 07/M01 A3001 RMK AO2 SLP167 T00721006 10083 20022 58007
KMSP 141653Z 22008KT 10SM FEW025 FEW250 07/M01 A3002 RMK AO2 SLP173 T00671006
KMSP 141553Z VRB06KT 10SM FEW020 FEW250 06/01 A3002 RMK AO2 SLP174 T00610006
KMSP 141453Z 24005KT 10SM FEW015 FEW080 FEW250 04/01 A3003 RMK AO2 SLP175 T00390006 51009
KMSP 141353Z 21003KT 10SM BKN085 03/01 A3002 RMK AO2 SLP173 T00280006
KMSP 141253Z 23007KT 10SM FEW015 BKN095 02/00 A3001 RMK AO2 SLP170 T00220000
KMSP 141153Z 24004KT 10SM OVC100 03/01 A3000 RMK AO2 SLP165 70003 T00280006 10028 20022 51011
KMSP 141053Z 24005KT 10SM OVC090 03/01 A2999 RMK AO2 SLP162 T00280006
KMSP 140953Z 26005KT 10SM OVC090 03/01 A2998 RMK AO2 SLP159 T00280006
KMSP 140853Z 24004KT 10SM OVC095 03/01 A2996 RMK AO2 SLP154 T00280006 52004
KMSP 140753Z 25004KT 10SM BKN100 BKN130 02/00 A2996 RMK AO2 SLP153 T00220000
KMSP 140653Z 25003KT 10SM SCT120 03/00 A2995 RMK AO2 SLP150 T00280000
KMSP 140553Z 25004KT 10SM SCT120 02/M01 A2995 RMK AO2 SLP149 T00221006 10050 20022 400720017 52008
KMSP 140453Z 28007KT 10SM FEW060 02/M01 A2994 RMK AO2 SLP146 T00221006
KMSP 140353Z 27007KT 10SM FEW060 03/M01 A2993 RMK AO2 SLP143 T00281006
KMSP 140253Z 28007KT 10SM FEW060 FEW250 03/M01 A2992 RMK AO2 SLP140 T00281006 51020
KMSP 140153Z 27007KT 10SM FEW065 03/00 A2991 RMK AO2 SLP135 T00330000
KMSP 140053Z 28009KT 10SM SCT065 04/00 A2989 RMK AO2 SLP128 T00390000
KMSP 132353Z 26009KT 10SM FEW038 BKN070 05/00 A2986 RMK AO2 SLP120 60003 T00500000 10072 20039 52021
KMSP 132253Z 28011KT 10SM FEW034 SCT049 BKN065 06/00 A2985 RMK AO2 PK WND 27029/2218 SLP113 T00560000
KMSP 132153Z 28015G28KT 10SM FEW020 SCT038 BKN046 06/01 A2982 RMK AO2 PK WND 27028/2148 RAB18E40 SLP105 PRESENT WX VCSH P0002 T00610006
KMSP 132053Z 30014G21KT 10SM SCT029 BKN040 BKN046 06/01 A2980 RMK AO2 PK WND 27028/2018 RAE05 SLP098 PRESENT WX VCSH P0000 60001 T00610006 53010
KMSP 131953Z 27014G22KT 7SM -RA SCT029 BKN044 OVC080 05/02 A2979 RMK AO2 PK WND 27027/1856 RAE1855B18PLB43E51 SLP095 P0001 T00500017
KMSP 131951Z 28012KT 5SM -RA SCT027 BKN044 OVC080 06/02 A2979 RMK AO2 PK WND 27027/1856 RAE1855B18PLB43E51 P0001
KMSP 131943Z 28011G18KT 7SM -PL FEW026 BKN043 OVC050 04/01 A2979 RMK AO2 PK WND 27027/1856 RAE1855B18E43PLB43 P0000 T00440006
KMSP 131927Z 28011G25KT 10SM -RA FEW021 BKN031 OVC040 04/01 A2979 RMK AO2 PK WND 27027/1856 RAE1855B18 P0000 T00440011
KMSP 131853Z 28010KT 6SM -RA SCT022 BKN028 OVC039 05/02 A2978 RMK AO2 RAE07B24 SLP090 P0000 T00500017
KMSP 131816Z 27009KT 10SM SCT023 OVC030 05/01 A2977 RMK AO2 RAE07 PRESENT WX VCSH P0000 T00500006
KMSP 131804Z 27011KT 9SM -RA BKN023 BKN031 OVC038 04/01 A2977 RMK AO2 P0000 T00440006
KMSP 131753Z 28014G20KT 10SM -RA FEW019 SCT025 OVC034 04/00 A2977 RMK AO2 PK WND 26026/1712 RAB51 SLP087 P0000 60000 T00440000 10056 20022 51014
KMSP 131738Z 28013KT 10SM SCT022 BKN030 OVC037 05/00 A2977 RMK AO2 PK WND 26026/1712 PRESENT WX VCSH T00500000
KMSP 131653Z 29012G18KT 10SM BKN023 OVC031 04/M01 A2976 RMK AO2 PK WND 27026/1603 SLP083 T00441006
KMSP 131615Z 29011G20KT 10SM BKN021 OVC030 04/00 A2975 RMK AO2 PK WND 27026/1603 T00390000
KMSP 131608Z 29013G26KT 10SM SCT018 SCT023 OVC030 04/00 A2975 RMK AO2 PK WND 27026/1603 T00390000
KMSP 131553Z 28015G25KT 10SM BKN021 BKN027 OVC033 04/00 A2975 RMK AO2 SLP080 T00390000
KMSP 131453Z 29011KT 10SM FEW017 BKN022 OVC030 04/M01 A2973 RMK AO2 PK WND 27026/1419 SLP073 60000 T00391006 53011
KMSP 131353Z 28009KT 10SM OVC021 03/00 A2971 RMK AO2 RAE04 SLP069 PRESENT WX VCSH P0000 T00280000
KMSP 131324Z 27011KT 10SM BKN020 OVC080 03/M01 A2970 RMK AO2 RAE04 PRESENT WX VCSH P0000 T00281006
KMSP 131253Z 26010KT 10SM -RA SCT019 BKN026 OVC032 03/00 A2970 RMK AO2 RAB43 SLP066 P0000 T00280000
KMSP 131153Z 26010KT 9SM BKN019 OVC075 02/00 A2969 RMK AO2 SNE49 SLP063 PRESENT WX VCSH P0000 60000 70007 T00220000 10022 20017 53007
KMSP 131146Z 27010G18KT 9SM -SN BKN019 BKN055 OVC075 02/00 A2969 RMK AO2 P0000 T00220000
KMSP 131117Z 26011G18KT 9SM -SN FEW015 SCT028 OVC075 02/00 A2968 RMK AO2 P0000 T00220000
KMSP 131053Z 27011KT 9SM -SN BKN017 OVC022 02/00 A2968 RMK AO2 SLP058 P0000 T00220000
KMSP 131038Z 26013G25KT 9SM -SN BKN015 OVC022 02/00 A2968 RMK AO2 P0000 T00220000
KMSP 131006Z 25010KT 9SM -SN BKN013 OVC020 02/01 A2968 RMK AO2 P0000 T00170006
KMSP 130953Z 25009KT 6SM -SN BR BKN015 OVC023 02/01 A2968 RMK AO2 PK WND 27026/0857 SLP057 P0000 T00170006
KMSP 130941Z 25009KT 3SM -SN BR FEW010 SCT015 OVC021 02/01 A2967 RMK AO2 PK WND 27026/0857 P0000 T00170006
KMSP 130926Z 25008KT 5SM -SN BR BKN013 OVC020 02/00 A2967 RMK AO2 PK WND 27026/0857 P0000 T00170000
KMSP 130853Z 25010KT 9SM -SN OVC015 02/00 A2967 RMK AO2 SLP055 P0000 60000 T00220000 51005
KMSP 130851Z 26011G18KT 9SM -SN OVC015 02/00 A2967 RMK AO2 P0000
KMSP 130802Z 26008G19KT 9SM -SN BKN014 OVC020 02/00 A2967 RMK AO2 P0000 T00170000
KMSP 130753Z 26011G18KT 8SM -SN SCT012 OVC020 02/00 A2966 RMK AO2 PK WND 24027/0727 SLP053 P0000 T00170000
KMSP 130653Z 25011G21KT 9SM -SN BKN018 OVC025 02/M01 A2966 RMK AO2 PK WND 26027/0635 SLP049 P0000 T00221006
KMSP 130553Z 26012G23KT 9SM -SN OVC022 02/M01 A2965 RMK AO2 SNB10 SLP047 P0000 60001 T00221011 10028 20022 400390006 51003
KMSP 130453Z 26010G19KT 10SM BKN021 OVC028 02/M01 A2965 RMK AO2 PK WND 26026/0358 SLP046 T00221006
KMSP 130353Z 25010KT 10SM FEW019 OVC025 03/M01 A2964 RMK AO2 PK WND 27027/0256 SLP045 T00281006
KMSP 130253Z 26010KT 10SM BKN021 BKN027 OVC038 03/00 A2964 RMK AO2 PK WND 27028/0224 RAE49SNE49 SLP045 P0001 60001 T00280000 50005
KMSP 130153Z 26012G19KT 9SM -RASN BKN018 BKN028 OVC034 02/00 A2964 RMK AO2 PK WND 26029/0124 SLP047 P0000 T00220000
KMSP 130053Z 25012G28KT 10SM -RASN SCT015 OVC019 02/00 A2964 RMK AO2 PK WND 26028/0048 SLP046 P0000 T00220000
KMSP 122353Z 25015G30KT 10SM -RASN SCT021 OVC028 03/M01 A2962 RMK AO2 PK WND 26033/2322 RAB13SNB19 SLP039 P0000 60003 T00281006 10039 20022 53013